sensor_id;sensor_type;location;lat;lon;timestamp;P1;durP1;ratioP1;P2;durP2;ratioP2
63959;SDS011;50136;51.374;0.096;2023-08-20T00:02:35;37.08;;;6.43;;
63959;SDS011;50136;51.374;0.096;2023-08-20T00:12:39;22.42;;;4.00;;
63959;SDS011;50136;51.374;0.096;2023-08-20T00:22:42;18.02;;;3.08;;
63959;SDS011;50136;51.374;0.096;2023-08-20T00:32:45;14.65;;;2.88;;
63959;SDS011;50136;51.374;0.096;2023-08-20T00:42:47;16.52;;;3.22;;
63959;SDS011;50136;51.374;0.096;2023-08-20T00:52:51;15.70;;;3.90;;
63959;SDS011;50136;51.374;0.096;2023-08-20T01:02:53;14.13;;;2.60;;
63959;SDS011;50136;51.374;0.096;2023-08-20T01:12:57;13.18;;;3.05;;
63959;SDS011;50136;51.374;0.096;2023-08-20T01:23:06;9.43;;;2.35;;
63959;SDS011;50136;51.374;0.096;2023-08-20T01:33:37;14.02;;;2.97;;
63959;SDS011;50136;51.374;0.096;2023-08-20T01:43:40;10.65;;;2.53;;
63959;SDS011;50136;51.374;0.096;2023-08-20T01:53:43;14.25;;;3.67;;
63959;SDS011;50136;51.374;0.096;2023-08-20T02:03:45;15.68;;;4.10;;
63959;SDS011;50136;51.374;0.096;2023-08-20T02:13:49;12.57;;;4.18;;
63959;SDS011;50136;51.374;0.096;2023-08-20T02:23:50;13.75;;;5.65;;
63959;SDS011;50136;51.374;0.096;2023-08-20T02:33:54;15.95;;;6.03;;
63959;SDS011;50136;51.374;0.096;2023-08-20T02:43:56;12.65;;;5.57;;
63959;SDS011;50136;51.374;0.096;2023-08-20T02:53:59;23.90;;;6.20;;
63959;SDS011;50136;51.374;0.096;2023-08-20T03:04:01;16.30;;;6.10;;
63959;SDS011;50136;51.374;0.096;2023-08-20T03:14:05;11.70;;;4.80;;
63959;SDS011;50136;51.374;0.096;2023-08-20T03:24:08;17.58;;;5.78;;
63959;SDS011;50136;51.374;0.096;2023-08-20T03:34:11;12.05;;;5.00;;
63959;SDS011;50136;51.374;0.096;2023-08-20T03:44:13;16.10;;;4.85;;
63959;SDS011;50136;51.374;0.096;2023-08-20T03:54:16;20.30;;;5.82;;
63959;SDS011;50136;51.374;0.096;2023-08-20T04:04:18;16.55;;;4.55;;
63959;SDS011;50136;51.374;0.096;2023-08-20T04:14:22;13.25;;;7.18;;
63959;SDS011;50136;51.374;0.096;2023-08-20T04:24:24;22.10;;;8.63;;
63959;SDS011;50136;51.374;0.096;2023-08-20T04:34:27;22.38;;;8.93;;
63959;SDS011;50136;51.374;0.096;2023-08-20T04:44:29;20.73;;;9.73;;
63959;SDS011;50136;51.374;0.096;2023-08-20T04:54:32;21.58;;;9.93;;
63959;SDS011;50136;51.374;0.096;2023-08-20T05:04:34;22.42;;;8.20;;
63959;SDS011;50136;51.374;0.096;2023-08-20T05:14:38;23.10;;;7.53;;
63959;SDS011;50136;51.374;0.096;2023-08-20T05:24:40;12.30;;;5.55;;
63959;SDS011;50136;51.374;0.096;2023-08-20T05:34:43;21.40;;;4.88;;
63959;SDS011;50136;51.374;0.096;2023-08-20T05:44:45;14.27;;;4.15;;
63959;SDS011;50136;51.374;0.096;2023-08-20T05:54:48;18.80;;;4.38;;
63959;SDS011;50136;51.374;0.096;2023-08-20T06:04:50;12.02;;;3.85;;
63959;SDS011;50136;51.374;0.096;2023-08-20T06:14:54;19.35;;;4.47;;
63959;SDS011;50136;51.374;0.096;2023-08-20T06:24:56;12.68;;;3.65;;
63959;SDS011;50136;51.374;0.096;2023-08-20T06:34:59;17.33;;;3.50;;
63959;SDS011;50136;51.374;0.096;2023-08-20T06:45:01;15.10;;;3.90;;
63959;SDS011;50136;51.374;0.096;2023-08-20T06:55:05;19.05;;;4.75;;
63959;SDS011;50136;51.374;0.096;2023-08-20T07:05:08;14.20;;;5.32;;
63959;SDS011;50136;51.374;0.096;2023-08-20T07:15:11;12.63;;;3.10;;
63959;SDS011;50136;51.374;0.096;2023-08-20T07:25:14;11.50;;;2.58;;
63959;SDS011;50136;51.374;0.096;2023-08-20T07:35:17;9.20;;;2.30;;
63959;SDS011;50136;51.374;0.096;2023-08-20T07:45:20;7.82;;;2.15;;
63959;SDS011;50136;51.374;0.096;2023-08-20T07:55:23;18.75;;;3.95;;
63959;SDS011;50136;51.374;0.096;2023-08-20T08:05:25;10.20;;;3.10;;
63959;SDS011;50136;51.374;0.096;2023-08-20T08:15:28;12.95;;;3.42;;
63959;SDS011;50136;51.374;0.096;2023-08-20T08:25:31;12.90;;;4.60;;
63959;SDS011;50136;51.374;0.096;2023-08-20T08:35:34;8.80;;;2.40;;
63959;SDS011;50136;51.374;0.096;2023-08-20T08:45:36;12.18;;;2.83;;
63959;SDS011;50136;51.374;0.096;2023-08-20T08:55:40;6.63;;;2.22;;
63959;SDS011;50136;51.374;0.096;2023-08-20T09:05:47;12.10;;;2.55;;
63959;SDS011;50136;51.374;0.096;2023-08-20T09:15:51;10.27;;;2.80;;
63959;SDS011;50136;51.374;0.096;2023-08-20T09:25:54;9.77;;;2.60;;
63959;SDS011;50136;51.374;0.096;2023-08-20T09:35:57;7.95;;;3.17;;
63959;SDS011;50136;51.374;0.096;2023-08-20T09:46:00;8.30;;;2.60;;
63959;SDS011;50136;51.374;0.096;2023-08-20T09:56:09;7.35;;;2.97;;
63959;SDS011;50136;51.374;0.096;2023-08-20T10:06:16;7.53;;;2.20;;
63959;SDS011;50136;51.374;0.096;2023-08-20T10:16:21;6.00;;;2.05;;
63959;SDS011;50136;51.374;0.096;2023-08-20T10:26:25;6.95;;;2.15;;
63959;SDS011;50136;51.374;0.096;2023-08-20T10:36:28;7.65;;;2.42;;
63959;SDS011;50136;51.374;0.096;2023-08-20T10:46:30;7.35;;;1.85;;
63959;SDS011;50136;51.374;0.096;2023-08-20T10:56:41;7.40;;;2.55;;
63959;SDS011;50136;51.374;0.096;2023-08-20T11:06:53;7.82;;;2.80;;
63959;SDS011;50136;51.374;0.096;2023-08-20T11:17:48;6.35;;;1.73;;
63959;SDS011;50136;51.374;0.096;2023-08-20T11:38:17;8.38;;;2.45;;
63959;SDS011;50136;51.374;0.096;2023-08-20T11:48:22;8.10;;;1.42;;
63959;SDS011;50136;51.374;0.096;2023-08-20T11:58:27;5.30;;;1.73;;
63959;SDS011;50136;51.374;0.096;2023-08-20T12:08:50;4.38;;;1.88;;
63959;SDS011;50136;51.374;0.096;2023-08-20T12:19:29;5.37;;;1.90;;
63959;SDS011;50136;51.374;0.096;2023-08-20T12:29:31;6.25;;;2.13;;
63959;SDS011;50136;51.374;0.096;2023-08-20T12:40:04;6.20;;;1.70;;
63959;SDS011;50136;51.374;0.096;2023-08-20T12:50:14;5.13;;;1.77;;
63959;SDS011;50136;51.374;0.096;2023-08-20T13:00:18;7.18;;;3.60;;
63959;SDS011;50136;51.374;0.096;2023-08-20T13:10:20;5.28;;;2.15;;
63959;SDS011;50136;51.374;0.096;2023-08-20T13:20:24;4.18;;;1.80;;
63959;SDS011;50136;51.374;0.096;2023-08-20T13:30:26;6.63;;;1.77;;
63959;SDS011;50136;51.374;0.096;2023-08-20T13:51:25;3.63;;;1.30;;
63959;SDS011;50136;51.374;0.096;2023-08-20T14:01:28;9.90;;;4.35;;
63959;SDS011;50136;51.374;0.096;2023-08-20T14:11:32;4.03;;;1.80;;
63959;SDS011;50136;51.374;0.096;2023-08-20T14:22:25;6.15;;;1.40;;
63959;SDS011;50136;51.374;0.096;2023-08-20T14:32:29;7.68;;;1.88;;
63959;SDS011;50136;51.374;0.096;2023-08-20T14:42:31;5.57;;;1.70;;
63959;SDS011;50136;51.374;0.096;2023-08-20T14:52:34;6.10;;;1.60;;
63959;SDS011;50136;51.374;0.096;2023-08-20T15:02:37;3.20;;;1.48;;
63959;SDS011;50136;51.374;0.096;2023-08-20T15:12:40;7.60;;;2.13;;
63959;SDS011;50136;51.374;0.096;2023-08-20T15:22:42;7.88;;;2.78;;
63959;SDS011;50136;51.374;0.096;2023-08-20T15:32:45;9.02;;;2.60;;
63959;SDS011;50136;51.374;0.096;2023-08-20T15:42:47;6.13;;;1.60;;
63959;SDS011;50136;51.374;0.096;2023-08-20T15:52:51;9.93;;;2.60;;
63959;SDS011;50136;51.374;0.096;2023-08-20T16:02:53;6.95;;;1.65;;
63959;SDS011;50136;51.374;0.096;2023-08-20T16:12:56;6.13;;;1.40;;
63959;SDS011;50136;51.374;0.096;2023-08-20T16:22:58;5.22;;;1.50;;
63959;SDS011;50136;51.374;0.096;2023-08-20T16:33:02;2.75;;;1.30;;
63959;SDS011;50136;51.374;0.096;2023-08-20T16:43:04;4.25;;;1.27;;
63959;SDS011;50136;51.374;0.096;2023-08-20T16:53:07;6.88;;;1.70;;
63959;SDS011;50136;51.374;0.096;2023-08-20T17:03:09;4.30;;;1.13;;
63959;SDS011;50136;51.374;0.096;2023-08-20T17:13:13;6.78;;;1.45;;
63959;SDS011;50136;51.374;0.096;2023-08-20T17:23:16;4.93;;;1.33;;
63959;SDS011;50136;51.374;0.096;2023-08-20T17:33:20;13.32;;;2.75;;
63959;SDS011;50136;51.374;0.096;2023-08-20T17:43:22;7.93;;;1.70;;
63959;SDS011;50136;51.374;0.096;2023-08-20T17:53:25;3.03;;;1.33;;
63959;SDS011;50136;51.374;0.096;2023-08-20T18:03:27;3.90;;;1.30;;
63959;SDS011;50136;51.374;0.096;2023-08-20T18:13:30;6.70;;;1.85;;
63959;SDS011;50136;51.374;0.096;2023-08-20T18:23:41;7.70;;;1.45;;
63959;SDS011;50136;51.374;0.096;2023-08-20T18:44:22;5.28;;;1.65;;
63959;SDS011;50136;51.374;0.096;2023-08-20T18:54:24;10.57;;;3.97;;
63959;SDS011;50136;51.374;0.096;2023-08-20T19:04:28;6.68;;;3.13;;
63959;SDS011;50136;51.374;0.096;2023-08-20T19:14:30;5.35;;;2.33;;
63959;SDS011;50136;51.374;0.096;2023-08-20T19:24:33;8.23;;;2.33;;
63959;SDS011;50136;51.374;0.096;2023-08-20T19:34:35;9.23;;;3.58;;
63959;SDS011;50136;51.374;0.096;2023-08-20T19:44:38;6.72;;;3.70;;
63959;SDS011;50136;51.374;0.096;2023-08-20T19:54:41;5.60;;;1.27;;
63959;SDS011;50136;51.374;0.096;2023-08-20T20:04:44;6.95;;;1.38;;
63959;SDS011;50136;51.374;0.096;2023-08-20T20:14:47;6.32;;;1.65;;
63959;SDS011;50136;51.374;0.096;2023-08-20T20:24:51;9.82;;;1.98;;
63959;SDS011;50136;51.374;0.096;2023-08-20T20:34:55;7.00;;;1.90;;
63959;SDS011;50136;51.374;0.096;2023-08-20T20:44:59;8.25;;;2.58;;
63959;SDS011;50136;51.374;0.096;2023-08-20T20:55:01;6.25;;;1.73;;
63959;SDS011;50136;51.374;0.096;2023-08-20T21:05:05;7.38;;;2.08;;
63959;SDS011;50136;51.374;0.096;2023-08-20T21:15:07;9.90;;;1.98;;
63959;SDS011;50136;51.374;0.096;2023-08-20T21:25:11;7.63;;;2.60;;
63959;SDS011;50136;51.374;0.096;2023-08-20T21:35:13;6.00;;;2.40;;
63959;SDS011;50136;51.374;0.096;2023-08-20T21:45:16;5.97;;;2.15;;
63959;SDS011;50136;51.374;0.096;2023-08-20T21:55:18;14.30;;;4.35;;
63959;SDS011;50136;51.374;0.096;2023-08-20T22:05:22;6.57;;;2.17;;
63959;SDS011;50136;51.374;0.096;2023-08-20T22:15:24;8.80;;;2.40;;
63959;SDS011;50136;51.374;0.096;2023-08-20T22:25:28;7.18;;;2.58;;
63959;SDS011;50136;51.374;0.096;2023-08-20T22:35:30;9.18;;;2.40;;
63959;SDS011;50136;51.374;0.096;2023-08-20T22:45:36;8.02;;;2.20;;
63959;SDS011;50136;51.374;0.096;2023-08-20T22:55:38;9.60;;;2.33;;
63959;SDS011;50136;51.374;0.096;2023-08-20T23:05:42;7.60;;;2.67;;
63959;SDS011;50136;51.374;0.096;2023-08-20T23:15:44;6.82;;;2.60;;
63959;SDS011;50136;51.374;0.096;2023-08-20T23:25:47;9.20;;;2.80;;
63959;SDS011;50136;51.374;0.096;2023-08-20T23:35:49;6.95;;;2.80;;
63959;SDS011;50136;51.374;0.096;2023-08-20T23:45:52;9.30;;;2.55;;
63959;SDS011;50136;51.374;0.096;2023-08-20T23:55:54;7.88;;;3.15;;
